Corlu, Turkey

10:01 PM EEST on August 27, 2016 (GMT +0300)
Corlu Air Base | | Change Station

Elev 568 ft 41.14 °N, 27.92 °E | Updated 11 minutes ago

Clear
Clear
68 °F
Feels Like 68 °F
N
12
Wind Variable Wind from NNE

Today
High -- | Low -- °F
--% Chance of Precip.
Yesterday
High -- | Low -- °F
Precip. -- in
Pressure 30.09 in
Visibility -9999.0 miles
Clouds
Dew Point 64 °F
Humidity 88%
Rainfall 0.00 in
Snow Depth Not available.
6:30 AM 7:48 PM
Waning Crescent, 22% visible
METAR LTBU 271850Z 02010KT CAVOK 20/18 Q1019
Pressure 30.09 in
Visibility -9999.0 miles
Clouds
Dew Point 64 °F
Humidity 88%
Rainfall 0.00 in
Snow Depth Not available.
6:30 AM 7:48 PM
Waning Crescent, 22% visible
METAR LTBU 271850Z 02010KT CAVOK 20/18 Q1019

10-Day Weather Forecast

×

Almanac

Astronomy

Aug. 27, 2016 Rise Set
Actual Time
Civil Twilight
Nautical Twilight
Astronomical Twilight
Moon
Length of Visible Light
Length of Day
Tomorrow will be .
, % of the Moon is Illuminated

Today's Extremes

Country Highs Country Lows

Community

WunderPhotos

Upload Photos

1,935,399 photos uploaded!

WunderBlog® & News

Nearby

Air Quality

  Air Quality AQ Index Pollutant
Not available.

Snow Depth

Station Depth Elevation

Earthquake Activity

City Distance Mag. Time & Date
Minimum magnitude displayed is 2.5.

Coastal Water Temperatures

Place Temperature

Stations

Nearby Weather Stations

Station Location Temp. Windchill Dew Point Humidity Wind Precip. Elev Updated Type